createdAt,value
2022-08-26T00:01:56.212Z,6.03
2022-08-26T00:04:25.791Z,6.97
2022-08-26T00:06:54.832Z,6.25
2022-08-26T00:09:25.195Z,6.70
2022-08-26T00:11:54.454Z,7.47
2022-08-26T00:14:25.939Z,6.68
2022-08-26T00:16:55.725Z,6.43
2022-08-26T00:19:22.848Z,6.80
2022-08-26T00:21:51.321Z,6.50
2022-08-26T00:24:20.958Z,7.10
2022-08-26T00:26:48.803Z,6.70
2022-08-26T00:29:17.397Z,6.88
2022-08-26T00:31:45.242Z,6.88
2022-08-26T00:34:14.078Z,6.82
2022-08-26T00:36:44.054Z,7.57
2022-08-26T00:39:11.273Z,7.80
2022-08-26T00:41:40.044Z,6.95
2022-08-26T00:44:10.261Z,7.00
2022-08-26T00:46:46.854Z,7.38
2022-08-26T00:49:28.420Z,6.32
2022-08-26T00:51:59.038Z,6.45
2022-08-26T00:54:30.477Z,7.18
2022-08-26T00:57:16.333Z,7.07
2022-08-26T00:59:47.873Z,6.83
2022-08-26T01:02:20.868Z,7.20
2022-08-26T01:04:55.825Z,6.65
2022-08-26T01:07:27.494Z,7.20
2022-08-26T01:10:00.214Z,6.78
2022-08-26T01:12:32.536Z,6.97
2022-08-26T01:15:00.839Z,7.00
2022-08-26T01:17:27.849Z,7.28
2022-08-26T01:20:08.706Z,7.18
2022-08-26T01:23:01.647Z,6.80
2022-08-26T01:25:33.734Z,6.90
2022-08-26T01:28:09.093Z,7.63
2022-08-26T01:30:39.642Z,6.85
2022-08-26T01:33:14.045Z,7.25
2022-08-26T01:35:42.925Z,7.18
2022-08-26T01:38:11.314Z,7.25
2022-08-26T01:40:39.886Z,7.55
2022-08-26T01:43:09.403Z,7.38
2022-08-26T01:45:40.585Z,7.43
2022-08-26T01:48:14.628Z,7.43
2022-08-26T01:50:45.278Z,6.43
2022-08-26T01:53:15.560Z,7.15
2022-08-26T01:55:49.086Z,6.90
2022-08-26T01:58:29.156Z,7.40
2022-08-26T02:00:56.576Z,8.50
2022-08-26T02:03:25.164Z,7.90
2022-08-26T02:05:58.723Z,7.80
2022-08-26T02:08:52.574Z,7.25
2022-08-26T02:11:20.515Z,7.00
2022-08-26T02:13:55.674Z,7.75
2022-08-26T02:16:26.446Z,7.50
2022-08-26T02:18:56.712Z,8.38
2022-08-26T02:21:24.888Z,7.60
2022-08-26T02:23:52.644Z,7.72
2022-08-26T02:26:26.984Z,8.00
2022-08-26T02:29:10.508Z,7.45
2022-08-26T02:31:37.601Z,7.35
2022-08-26T02:34:31.076Z,8.38
2022-08-26T02:37:07.739Z,7.85
2022-08-26T02:39:37.482Z,7.85
2022-08-26T02:42:05.335Z,8.13
2022-08-26T02:44:32.742Z,8.02
2022-08-26T02:47:00.842Z,8.15
2022-08-26T02:49:30.526Z,7.82
2022-08-26T02:52:01.984Z,8.38
2022-08-26T02:54:29.518Z,7.90
2022-08-26T02:56:57.157Z,8.48
2022-08-26T02:59:24.691Z,8.07
2022-08-26T03:01:55.900Z,8.57
2022-08-26T03:04:23.625Z,8.30
2022-08-26T03:06:53.970Z,8.40
2022-08-26T03:09:23.347Z,8.48
2022-08-26T03:11:51.916Z,8.07
2022-08-26T03:14:18.860Z,8.07
2022-08-26T03:16:48.519Z,8.38
2022-08-26T03:19:17.607Z,8.10
2022-08-26T03:21:45.040Z,8.80
2022-08-26T03:24:20.248Z,7.38
2022-08-26T03:26:52.194Z,7.60
2022-08-26T03:29:40.420Z,8.23
2022-08-26T03:32:08.536Z,10.30
2022-08-26T03:34:36.355Z,11.73
2022-08-26T03:37:03.598Z,9.65
2022-08-26T03:39:32.588Z,9.25
2022-08-26T03:42:00.050Z,7.82
2022-08-26T03:44:27.373Z,8.95
2022-08-26T03:46:54.982Z,8.73
2022-08-26T03:49:22.512Z,7.93
2022-08-26T03:51:50.719Z,8.48
2022-08-26T03:54:18.466Z,8.02
2022-08-26T03:56:46.577Z,7.82
2022-08-26T03:59:13.815Z,8.30
2022-08-26T04:01:41.076Z,8.07
2022-08-26T04:04:08.140Z,9.13
2022-08-26T04:06:43.300Z,8.45
2022-08-26T04:09:18.475Z,8.10
2022-08-26T04:11:50.351Z,8.27
2022-08-26T04:14:22.286Z,11.30
2022-08-26T04:16:50.768Z,9.10
2022-08-26T04:19:19.000Z,10.15
2022-08-26T04:21:48.792Z,9.73
2022-08-26T04:24:17.623Z,8.45
2022-08-26T04:26:45.018Z,9.10
2022-08-26T04:29:20.527Z,8.70
2022-08-26T04:31:50.368Z,7.72
2022-08-26T04:34:28.439Z,8.88
2022-08-26T04:36:57.717Z,9.60
2022-08-26T04:39:25.520Z,8.75
2022-08-26T04:41:55.116Z,10.07
2022-08-26T04:44:24.315Z,9.00
2022-08-26T04:46:52.172Z,9.23
2022-08-26T04:49:20.684Z,9.25
2022-08-26T04:51:48.912Z,9.13
2022-08-26T04:54:16.594Z,8.48
2022-08-26T04:56:49.319Z,9.20
2022-08-26T04:59:18.224Z,9.43
2022-08-26T05:01:52.302Z,9.30
2022-08-26T05:04:21.525Z,8.15
2022-08-26T05:06:49.840Z,9.25
2022-08-26T05:09:18.630Z,9.02
2022-08-26T05:11:48.325Z,21.27
2022-08-26T05:14:21.051Z,11.98
2022-08-26T05:16:49.839Z,9.38
2022-08-26T05:19:19.172Z,9.50
2022-08-26T05:21:48.569Z,9.48
2022-08-26T05:24:16.263Z,8.40
2022-08-26T05:26:44.537Z,9.43
2022-08-26T05:29:12.321Z,9.02
2022-08-26T05:31:39.481Z,9.48
2022-08-26T05:34:07.431Z,9.95
2022-08-26T05:36:36.951Z,8.80
2022-08-26T05:39:10.588Z,8.82
2022-08-26T05:41:41.180Z,9.20
2022-08-26T05:44:12.620Z,9.65
2022-08-26T05:46:42.386Z,8.40
2022-08-26T05:49:13.391Z,13.45
2022-08-26T05:51:42.186Z,13.85
2022-08-26T05:54:10.280Z,10.07
2022-08-26T05:56:39.064Z,8.55
2022-08-26T05:59:10.884Z,8.52
2022-08-26T06:01:43.573Z,9.00
2022-08-26T06:04:11.839Z,10.15
2022-08-26T06:06:43.000Z,9.15
2022-08-26T06:09:11.067Z,9.85
2022-08-26T06:11:39.047Z,9.57
2022-08-26T06:14:07.781Z,9.43
2022-08-26T06:16:40.781Z,8.73
2022-08-26T06:19:11.468Z,8.20
2022-08-26T06:21:42.149Z,9.00
2022-08-26T06:24:32.233Z,8.98
2022-08-26T06:27:05.844Z,8.80
2022-08-26T06:29:36.299Z,8.38
2022-08-26T06:32:05.565Z,9.43
2022-08-26T06:34:33.793Z,8.50
2022-08-26T06:37:02.728Z,10.18
2022-08-26T06:39:31.643Z,9.00
2022-08-26T06:42:00.530Z,8.32
2022-08-26T06:44:27.789Z,8.50
2022-08-26T06:46:55.105Z,7.90
2022-08-26T06:49:27.439Z,8.75
2022-08-26T06:51:58.242Z,8.68
2022-08-26T06:54:27.716Z,8.35
2022-08-26T06:56:56.731Z,8.63
2022-08-26T06:59:24.401Z,8.38
2022-08-26T07:01:52.430Z,9.75
2022-08-26T07:04:22.311Z,7.93
2022-08-26T07:07:15.559Z,7.70
2022-08-26T07:10:08.893Z,14.10
2022-08-26T07:12:37.018Z,9.68
2022-08-26T07:15:04.640Z,8.00
2022-08-26T07:17:31.610Z,7.20
2022-08-26T07:20:03.253Z,8.35
2022-08-26T07:22:31.846Z,8.40
2022-08-26T07:24:59.215Z,7.65
2022-08-26T07:27:26.376Z,7.50
2022-08-26T07:29:57.066Z,8.60
2022-08-26T07:32:25.442Z,8.15
2022-08-26T07:34:52.322Z,7.55
2022-08-26T07:37:19.778Z,7.18
2022-08-26T07:39:47.516Z,7.80
2022-08-26T07:42:18.415Z,10.88
2022-08-26T07:44:45.573Z,8.80
2022-08-26T07:47:25.213Z,7.85
2022-08-26T07:49:55.961Z,7.43
2022-08-26T07:52:27.007Z,6.50
2022-08-26T07:54:57.976Z,7.18
2022-08-26T07:57:26.421Z,6.82
2022-08-26T07:59:54.081Z,6.07
2022-08-26T08:02:24.415Z,6.80
2022-08-26T08:04:52.255Z,6.95
2022-08-26T08:07:19.550Z,6.45
2022-08-26T08:09:51.252Z,7.03
2022-08-26T08:12:19.565Z,6.13
2022-08-26T08:15:15.321Z,7.18
2022-08-26T08:17:46.027Z,6.10
2022-08-26T08:20:14.481Z,6.15
2022-08-26T08:22:42.590Z,6.65
2022-08-26T08:25:12.369Z,6.03
2022-08-26T08:27:42.412Z,5.80
2022-08-26T08:30:13.826Z,5.38
2022-08-26T08:32:43.752Z,5.82
2022-08-26T08:35:14.230Z,6.32
2022-08-26T08:37:43.883Z,6.65
2022-08-26T08:40:18.081Z,5.63
2022-08-26T08:42:56.852Z,5.20
2022-08-26T08:45:49.590Z,4.70
2022-08-26T08:48:29.615Z,5.32
2022-08-26T08:51:35.239Z,5.80
2022-08-26T08:54:02.867Z,5.32
2022-08-26T08:56:47.599Z,5.97
2022-08-26T08:59:24.797Z,4.97
2022-08-26T09:02:27.359Z,5.88
2022-08-26T09:05:03.133Z,5.15
2022-08-26T09:07:36.877Z,4.93
2022-08-26T09:10:29.656Z,5.45
2022-08-26T09:12:58.708Z,4.95
2022-08-26T09:16:07.438Z,4.75
2022-08-26T09:18:59.498Z,4.97
2022-08-26T09:21:27.031Z,4.97
2022-08-26T09:23:56.767Z,4.82
2022-08-26T09:26:30.655Z,5.05
2022-08-26T09:29:05.425Z,4.88
2022-08-26T09:31:36.277Z,6.20
2022-08-26T09:34:26.580Z,5.28
2022-08-26T09:36:59.648Z,4.88
2022-08-26T09:39:37.684Z,4.53
2022-08-26T09:42:23.571Z,5.35
2022-08-26T09:44:59.428Z,5.70
2022-08-26T09:47:46.215Z,5.00
2022-08-26T09:50:36.401Z,4.97
2022-08-26T09:53:28.720Z,5.13
2022-08-26T09:56:27.841Z,5.13
2022-08-26T09:58:56.732Z,5.20
2022-08-26T10:01:42.102Z,5.80
2022-08-26T10:04:14.030Z,4.70
2022-08-26T10:07:04.979Z,4.78
2022-08-26T10:09:37.968Z,4.82
2022-08-26T10:12:17.720Z,5.63
2022-08-26T10:14:54.115Z,5.28
2022-08-26T10:17:32.534Z,5.55
2022-08-26T10:20:27.502Z,5.20
2022-08-26T10:23:05.588Z,4.70
2022-08-26T10:25:57.084Z,5.47
2022-08-26T10:28:50.081Z,5.45
2022-08-26T10:31:38.209Z,5.40
2022-08-26T10:34:10.361Z,4.80
2022-08-26T10:37:13.697Z,5.72
2022-08-26T10:40:04.518Z,5.82
2022-08-26T10:42:51.081Z,4.97
2022-08-26T10:45:26.648Z,5.20
2022-08-26T10:48:07.418Z,5.20
2022-08-26T10:50:41.853Z,5.97
2022-08-26T10:53:27.812Z,5.22
2022-08-26T10:56:06.332Z,5.55
2022-08-26T10:59:12.242Z,5.38
2022-08-26T11:02:07.036Z,5.35
2022-08-26T11:04:58.635Z,5.90
2022-08-26T11:07:41.808Z,5.70
2022-08-26T11:10:20.763Z,5.90
2022-08-26T11:13:03.593Z,6.00
2022-08-26T11:15:31.444Z,4.82
2022-08-26T11:18:04.945Z,5.63
2022-08-26T11:20:55.038Z,5.43
2022-08-26T11:23:27.282Z,5.25
2022-08-26T11:25:57.443Z,6.05
2022-08-26T11:28:45.302Z,5.55
2022-08-26T11:31:25.026Z,5.80
2022-08-26T11:34:00.655Z,6.35
2022-08-26T11:36:56.336Z,6.10
2022-08-26T11:39:31.751Z,6.85
2022-08-26T11:42:35.101Z,6.25
2022-08-26T11:45:26.352Z,6.22
2022-08-26T11:47:54.797Z,6.30
2022-08-26T11:50:28.395Z,5.90
2022-08-26T11:53:01.826Z,6.28
2022-08-26T11:55:32.796Z,6.45
2022-08-26T11:58:02.137Z,7.18
2022-08-26T12:00:45.728Z,7.82
2022-08-26T12:03:23.042Z,6.07
2022-08-26T12:05:53.489Z,6.28
2022-08-26T12:08:27.782Z,6.38
2022-08-26T12:11:13.634Z,6.45
2022-08-26T12:13:42.284Z,5.57
2022-08-26T12:16:09.980Z,6.43
2022-08-26T12:18:39.068Z,6.82
2022-08-26T12:21:26.149Z,6.10
2022-08-26T12:23:57.096Z,5.95
2022-08-26T12:26:33.007Z,4.53
2022-08-26T12:29:12.733Z,4.13
2022-08-26T12:31:48.115Z,4.03
2022-08-26T12:34:17.868Z,3.38
2022-08-26T12:39:37.978Z,3.45
2022-08-26T12:42:15.729Z,3.05
2022-08-26T12:45:04.056Z,2.97
2022-08-26T12:47:43.996Z,3.28
2022-08-26T12:50:23.819Z,3.45
2022-08-26T12:53:02.431Z,4.07
2022-08-26T12:55:32.450Z,3.95
2022-08-26T12:58:37.512Z,4.07
2022-08-26T13:01:04.451Z,3.50
2022-08-26T13:03:34.893Z,4.25
2022-08-26T13:06:20.532Z,4.55
2022-08-26T13:09:11.944Z,4.32
2022-08-26T13:11:45.165Z,4.35
2022-08-26T13:14:23.842Z,5.25
2022-08-26T13:16:52.582Z,4.53
2022-08-26T13:19:23.491Z,3.80
2022-08-26T13:21:54.041Z,4.70
2022-08-26T13:24:43.079Z,5.30
2022-08-26T13:27:14.136Z,5.50
2022-08-26T13:29:41.660Z,5.90
2022-08-26T13:32:09.489Z,5.65
2022-08-26T13:34:38.753Z,5.40
2022-08-26T13:37:06.894Z,5.07
2022-08-26T13:39:33.915Z,5.57
2022-08-26T13:42:01.119Z,5.55
2022-08-26T13:44:28.143Z,5.30
2022-08-26T13:46:55.152Z,6.13
2022-08-26T13:49:22.644Z,5.63
2022-08-26T13:51:49.946Z,5.65
2022-08-26T13:54:17.246Z,5.18
2022-08-26T13:56:44.226Z,6.35
2022-08-26T13:59:12.111Z,6.00
2022-08-26T14:01:40.014Z,5.40
2022-08-26T14:04:08.361Z,6.70
2022-08-26T14:06:35.941Z,5.90
2022-08-26T14:09:03.834Z,6.13
2022-08-26T14:11:34.779Z,6.07
2022-08-26T14:14:18.142Z,6.35
2022-08-26T14:16:59.544Z,5.28
2022-08-26T14:19:30.064Z,5.72
2022-08-26T14:21:57.909Z,5.47
2022-08-26T14:24:24.977Z,5.65
2022-08-26T14:26:51.985Z,5.55
2022-08-26T14:29:19.047Z,6.07
2022-08-26T14:31:46.146Z,6.78
2022-08-26T14:34:13.981Z,5.88
2022-08-26T14:36:41.439Z,6.22
2022-08-26T14:39:11.608Z,5.60
2022-08-26T14:41:53.797Z,6.40
2022-08-26T14:44:26.734Z,6.18
2022-08-26T14:46:56.683Z,5.93
2022-08-26T14:49:27.157Z,7.00
2022-08-26T14:51:55.207Z,6.38
2022-08-26T14:54:22.398Z,5.35
2022-08-26T14:56:54.823Z,5.97
2022-08-26T14:59:29.057Z,6.22
2022-08-26T15:01:57.179Z,5.68
2022-08-26T15:04:25.409Z,5.50
2022-08-26T15:06:54.903Z,5.43
2022-08-26T15:09:23.799Z,4.40
2022-08-26T15:11:53.156Z,4.97
2022-08-26T15:14:21.825Z,4.60
2022-08-26T15:16:52.942Z,4.97
2022-08-26T15:19:21.408Z,5.20
2022-08-26T15:22:13.653Z,4.50
2022-08-26T15:24:40.908Z,4.30
2022-08-26T15:27:09.082Z,4.68
2022-08-26T15:29:36.200Z,4.15
2022-08-26T15:32:04.127Z,4.95
2022-08-26T15:34:32.151Z,4.47
2022-08-26T15:36:59.263Z,5.25
2022-08-26T15:39:26.334Z,5.40
2022-08-26T15:41:56.067Z,5.22
2022-08-26T15:44:25.103Z,5.70
2022-08-26T15:46:58.275Z,5.63
2022-08-26T15:49:27.398Z,5.10
2022-08-26T15:51:55.062Z,5.75
2022-08-26T15:54:23.838Z,5.00
2022-08-26T15:56:52.510Z,4.35
2022-08-26T15:59:21.912Z,5.45
2022-08-26T16:01:49.870Z,5.35
2022-08-26T16:04:18.499Z,5.43
2022-08-26T16:06:50.366Z,6.15
2022-08-26T16:09:23.551Z,5.28
2022-08-26T16:11:54.038Z,5.75
2022-08-26T16:14:23.219Z,6.35
2022-08-26T16:16:50.860Z,7.80
2022-08-26T16:19:18.335Z,6.90
2022-08-26T16:21:46.028Z,6.72
2022-08-26T16:24:13.626Z,5.80
2022-08-26T16:26:42.751Z,5.65
2022-08-26T16:29:13.834Z,6.25
2022-08-26T16:31:41.907Z,9.05
2022-08-26T16:34:09.610Z,7.13
2022-08-26T16:36:38.696Z,6.18
2022-08-26T16:39:08.076Z,6.45
2022-08-26T16:41:35.921Z,6.38
2022-08-26T16:44:04.461Z,6.70
2022-08-26T16:46:31.645Z,7.13
2022-08-26T16:48:59.487Z,6.85
2022-08-26T16:51:28.134Z,8.90
2022-08-26T16:53:59.336Z,7.80
2022-08-26T16:56:33.734Z,7.20
2022-08-26T16:59:05.095Z,6.32
2022-08-26T17:01:32.580Z,7.40
2022-08-26T17:03:59.809Z,8.52
2022-08-26T17:06:26.821Z,7.38
2022-08-26T17:08:53.912Z,12.95
2022-08-26T17:11:20.873Z,9.65
2022-08-26T17:13:47.997Z,7.95
2022-08-26T17:16:15.336Z,7.38
2022-08-26T17:18:42.428Z,7.15
2022-08-26T17:21:12.209Z,7.53
2022-08-26T17:23:40.989Z,10.20
2022-08-26T17:26:09.055Z,7.53
2022-08-26T17:28:36.553Z,7.70
2022-08-26T17:31:05.228Z,8.20
2022-08-26T17:33:32.780Z,8.40
2022-08-26T17:36:00.653Z,7.85
2022-08-26T17:38:29.051Z,7.78
2022-08-26T17:40:57.594Z,7.82
2022-08-26T17:43:26.757Z,7.30
2022-08-26T17:46:06.889Z,7.15
2022-08-26T17:48:36.203Z,7.78
2022-08-26T17:51:13.585Z,10.15
2022-08-26T17:53:41.577Z,9.43
2022-08-26T17:56:12.528Z,8.48
2022-08-26T17:58:40.876Z,9.30
2022-08-26T18:01:25.914Z,8.70
2022-08-26T18:03:59.515Z,8.52
2022-08-26T18:06:27.737Z,8.00
2022-08-26T18:08:55.462Z,8.93
2022-08-26T18:11:24.588Z,8.25
2022-08-26T18:13:51.815Z,8.02
2022-08-26T18:16:20.103Z,7.72
2022-08-26T18:18:48.601Z,8.25
2022-08-26T18:21:19.300Z,8.48
2022-08-26T18:23:47.177Z,8.05
2022-08-26T18:26:31.787Z,7.85
2022-08-26T18:28:59.929Z,7.68
2022-08-26T18:31:27.819Z,8.70
2022-08-26T18:33:55.227Z,8.70
2022-08-26T18:36:27.113Z,8.45
2022-08-26T18:38:55.145Z,7.95
2022-08-26T18:41:25.413Z,8.15
2022-08-26T18:43:54.091Z,8.05
2022-08-26T18:46:24.978Z,8.68
2022-08-26T18:48:53.892Z,8.70
2022-08-26T18:51:25.628Z,10.05
2022-08-26T18:53:53.320Z,9.50
2022-08-26T18:56:20.380Z,9.00
2022-08-26T18:58:48.232Z,9.07
2022-08-26T19:01:17.421Z,8.88
2022-08-26T19:03:46.139Z,8.70
2022-08-26T19:06:22.238Z,8.65
2022-08-26T19:08:51.096Z,8.90
2022-08-26T19:11:32.582Z,9.63
2022-08-26T19:14:08.219Z,9.15
2022-08-26T19:16:36.729Z,8.95
2022-08-26T19:19:05.127Z,9.48
2022-08-26T19:21:34.345Z,8.38
2022-08-26T19:24:06.020Z,8.65
2022-08-26T19:26:33.176Z,9.60
2022-08-26T19:29:00.514Z,9.32
2022-08-26T19:31:27.521Z,8.90
2022-08-26T19:33:56.541Z,8.63
2022-08-26T19:36:27.682Z,9.73
2022-08-26T19:38:56.657Z,9.18
2022-08-26T19:41:37.173Z,10.02
2022-08-26T19:44:12.968Z,9.32
2022-08-26T19:46:40.356Z,9.55
2022-08-26T19:49:07.386Z,8.77
2022-08-26T19:51:36.545Z,9.68
2022-08-26T19:54:04.386Z,10.27
2022-08-26T19:56:31.892Z,9.80
2022-08-26T19:58:59.082Z,10.85
2022-08-26T20:01:26.134Z,10.02
2022-08-26T20:03:53.362Z,9.63
2022-08-26T20:06:20.850Z,10.07
2022-08-26T20:08:48.198Z,9.75
2022-08-26T20:11:18.887Z,9.68
2022-08-26T20:13:47.930Z,9.63
2022-08-26T20:16:16.214Z,10.23
2022-08-26T20:19:03.920Z,10.77
2022-08-26T20:21:35.611Z,9.73
2022-08-26T20:24:09.915Z,10.00
2022-08-26T20:26:40.786Z,9.98
2022-08-26T20:29:10.304Z,9.32
2022-08-26T20:31:38.051Z,10.15
2022-08-26T20:34:06.819Z,9.48
2022-08-26T20:36:34.467Z,8.63
2022-08-26T20:39:01.486Z,9.85
2022-08-26T20:41:29.285Z,9.60
2022-08-26T20:43:57.165Z,9.38
2022-08-26T20:46:25.367Z,9.57
2022-08-26T20:48:53.718Z,9.05
2022-08-26T20:51:23.533Z,9.63
2022-08-26T20:53:51.115Z,8.93
2022-08-26T20:56:23.652Z,8.95
2022-08-26T20:58:59.127Z,10.07
2022-08-26T21:01:33.582Z,10.15
2022-08-26T21:04:04.342Z,10.60
2022-08-26T21:06:35.218Z,9.68
2022-08-26T21:09:05.424Z,9.35
2022-08-26T21:11:33.515Z,8.65
2022-08-26T21:14:04.674Z,9.10
2022-08-26T21:16:36.664Z,9.32
2022-08-26T21:19:09.297Z,9.63
2022-08-26T21:21:36.471Z,11.38
2022-08-26T21:24:04.164Z,11.30
2022-08-26T21:26:31.410Z,10.00
2022-08-26T21:29:00.944Z,9.18
2022-08-26T21:31:29.678Z,9.35
2022-08-26T21:33:56.671Z,9.35
2022-08-26T21:36:23.931Z,9.48
2022-08-26T21:38:50.925Z,10.05
2022-08-26T21:41:22.174Z,9.93
2022-08-26T21:43:53.907Z,9.60
2022-08-26T21:46:23.574Z,11.05
2022-08-26T21:48:56.572Z,10.63
2022-08-26T21:51:27.519Z,9.85
2022-08-26T21:53:57.442Z,9.65
2022-08-26T21:56:27.420Z,10.30
2022-08-26T21:58:56.382Z,10.63
2022-08-26T22:01:26.240Z,9.15
2022-08-26T22:03:54.439Z,10.07
2022-08-26T22:06:24.742Z,10.45
2022-08-26T22:08:53.046Z,10.30
2022-08-26T22:11:20.469Z,9.63
2022-08-26T22:13:49.186Z,10.38
2022-08-26T22:16:17.171Z,10.43
2022-08-26T22:18:45.963Z,9.57
2022-08-26T22:21:20.961Z,10.30
2022-08-26T22:23:48.060Z,10.35
2022-08-26T22:26:25.261Z,10.18
2022-08-26T22:28:55.573Z,9.82
2022-08-26T22:31:35.300Z,10.07
2022-08-26T22:34:09.725Z,10.35
2022-08-26T22:36:43.902Z,9.65
2022-08-26T22:39:13.766Z,9.68
2022-08-26T22:41:43.628Z,9.38
2022-08-26T22:44:12.142Z,9.20
2022-08-26T22:46:40.762Z,9.80
2022-08-26T22:49:11.126Z,10.35
2022-08-26T22:51:38.431Z,10.02
2022-08-26T22:54:06.102Z,9.57
2022-08-26T22:56:33.644Z,10.05
2022-08-26T22:59:00.720Z,9.32
2022-08-26T23:01:28.248Z,10.35
2022-08-26T23:07:05.813Z,8.73
2022-08-26T23:09:32.833Z,9.05
2022-08-26T23:11:59.914Z,8.68
2022-08-26T23:14:27.213Z,9.07
2022-08-26T23:16:54.289Z,9.13
2022-08-26T23:19:23.117Z,9.27
2022-08-26T23:21:51.461Z,9.43
2022-08-26T23:24:18.724Z,8.40
2022-08-26T23:26:46.751Z,8.50
2022-08-26T23:29:15.464Z,9.15
2022-08-26T23:31:43.250Z,10.00
2022-08-26T23:34:29.386Z,9.63
2022-08-26T23:36:58.500Z,8.88
2022-08-26T23:39:26.331Z,8.52
2022-08-26T23:41:53.301Z,9.07
2022-08-26T23:44:20.843Z,9.82
2022-08-26T23:46:47.873Z,8.77
2022-08-26T23:49:14.847Z,9.57
2022-08-26T23:52:00.603Z,9.40
2022-08-26T23:54:27.772Z,9.30
2022-08-26T23:56:54.922Z,9.35
2022-08-26T23:59:21.871Z,8.93
